Weather at Berkeley County Airport

Public forecast

Using degrees Fahrenheit for public forecast. Weather courtesy of forecast.io.

Current aviation weather report (METAR) for Berkeley County Airport

Retrieved 2020/10/01 12:35 UTC (0 seconds ago):

KMKS 011235Z AUTO 00000KT 10SM CLR 15/14 A3003 RMK AO2

Closest aviation forecast (TAF) to Berkeley County Airport

Closest forecast is Charleston Air Force Base-International Airport, 17.2 nm (31.9 km) S. Retrieved 2020/10/01 12:28 UTC (0 seconds ago):

TAF KCHS 011120Z 0112/0212 VRB03KT P6SM SKC FM011400 27004KT P6SM SKC FM012000 20007KT P6SM SKC FM020900 30007KT P6SM FEW200